sensor_id;sensor_type;location;lat;lon;timestamp;pressure;altitude;pressure_sealevel;temperature;humidity
19624;BME280;9959;49.798;9.928;2023-01-27T00:01:03;100023.28;;;-1.22;85.61
19624;BME280;9959;49.798;9.928;2023-01-27T00:03:30;100020.63;;;-1.22;86.44
19624;BME280;9959;49.798;9.928;2023-01-27T00:05:57;100016.81;;;-1.08;86.31
19624;BME280;9959;49.798;9.928;2023-01-27T00:08:27;100017.03;;;-1.21;86.61
19624;BME280;9959;49.798;9.928;2023-01-27T00:10:58;100020.88;;;-1.25;86.57
19624;BME280;9959;49.798;9.928;2023-01-27T00:13:39;100027.72;;;-1.22;86.49
19624;BME280;9959;49.798;9.928;2023-01-27T00:16:06;100016.78;;;-1.18;86.77
19624;BME280;9959;49.798;9.928;2023-01-27T00:18:32;100023.50;;;-1.14;86.66
19624;BME280;9959;49.798;9.928;2023-01-27T00:20:59;100021.22;;;-1.18;87.22
19624;BME280;9959;49.798;9.928;2023-01-27T00:23:40;100019.34;;;-1.27;87.51
19624;BME280;9959;49.798;9.928;2023-01-27T00:26:24;100019.72;;;-1.32;87.59
19624;BME280;9959;49.798;9.928;2023-01-27T00:28:51;100017.50;;;-1.16;87.31
19624;BME280;9959;49.798;9.928;2023-01-27T00:31:18;100015.81;;;-1.17;87.37
19624;BME280;9959;49.798;9.928;2023-01-27T00:34:04;100017.28;;;-1.24;87.48
19624;BME280;9959;49.798;9.928;2023-01-27T00:36:39;100014.25;;;-1.19;87.27
19624;BME280;9959;49.798;9.928;2023-01-27T00:39:08;100017.03;;;-1.21;87.27
19624;BME280;9959;49.798;9.928;2023-01-27T00:41:35;100011.53;;;-1.29;87.45
19624;BME280;9959;49.798;9.928;2023-01-27T00:44:04;100012.19;;;-1.16;87.08
19624;BME280;9959;49.798;9.928;2023-01-27T00:46:34;100013.16;;;-1.17;87.54
19624;BME280;9959;49.798;9.928;2023-01-27T00:49:01;100014.25;;;-1.19;87.15
19624;BME280;9959;49.798;9.928;2023-01-27T00:51:31;100010.06;;;-1.22;87.65
19624;BME280;9959;49.798;9.928;2023-01-27T00:53:58;100011.50;;;-1.18;87.39
19624;BME280;9959;49.798;9.928;2023-01-27T00:56:24;100009.34;;;-1.24;87.64
19624;BME280;9959;49.798;9.928;2023-01-27T00:58:56;100012.25;;;-1.27;87.46
19624;BME280;9959;49.798;9.928;2023-01-27T01:01:23;100013.34;;;-1.29;87.76
19624;BME280;9959;49.798;9.928;2023-01-27T01:03:50;100019.88;;;-1.13;87.73
19624;BME280;9959;49.798;9.928;2023-01-27T01:06:18;100013.09;;;-1.26;87.61
19624;BME280;9959;49.798;9.928;2023-01-27T01:08:45;100005.63;;;-1.21;87.40
19624;BME280;9959;49.798;9.928;2023-01-27T01:11:15;100013.09;;;-1.26;87.93
19624;BME280;9959;49.798;9.928;2023-01-27T01:13:43;100016.53;;;-1.15;87.80
19624;BME280;9959;49.798;9.928;2023-01-27T01:18:40;100025.09;;;-1.22;88.00
19624;BME280;9959;49.798;9.928;2023-01-27T01:21:07;100023.41;;;-1.23;87.52
19624;BME280;9959;49.798;9.928;2023-01-27T01:23:37;100024.84;;;-1.19;88.17
19624;BME280;9959;49.798;9.928;2023-01-27T01:26:04;100029.31;;;-1.31;88.36
19624;BME280;9959;49.798;9.928;2023-01-27T01:28:31;100034.31;;;-1.17;88.25
19624;BME280;9959;49.798;9.928;2023-01-27T01:31:06;100024.56;;;-1.16;87.99
19624;BME280;9959;49.798;9.928;2023-01-27T01:33:34;100023.75;;;-1.17;87.85
19624;BME280;9959;49.798;9.928;2023-01-27T01:36:10;100029.19;;;-1.29;88.58
19624;BME280;9959;49.798;9.928;2023-01-27T01:38:37;100024.50;;;-1.26;88.40
19624;BME280;9959;49.798;9.928;2023-01-27T01:41:05;100025.16;;;-1.13;88.41
19624;BME280;9959;49.798;9.928;2023-01-27T01:43:33;100016.78;;;-1.18;88.61
19624;BME280;9959;49.798;9.928;2023-01-27T01:46:01;100024.56;;;-1.16;88.85
19624;BME280;9959;49.798;9.928;2023-01-27T01:48:36;100023.50;;;-1.14;88.23
19624;BME280;9959;49.798;9.928;2023-01-27T01:53:47;100023.88;;;-1.18;86.76
19624;BME280;9959;49.798;9.928;2023-01-27T01:56:20;100025.34;;;-1.25;86.53
19624;BME280;9959;49.798;9.928;2023-01-27T01:58:49;100020.88;;;-1.25;86.50
19624;BME280;9959;49.798;9.928;2023-01-27T02:01:17;100020.63;;;-1.22;86.55
19624;BME280;9959;49.798;9.928;2023-01-27T02:03:48;100020.63;;;-1.22;86.53
19624;BME280;9959;49.798;9.928;2023-01-27T02:06:16;100023.16;;;-1.20;86.61
19624;BME280;9959;49.798;9.928;2023-01-27T02:08:44;100019.75;;;-1.11;86.67
19624;BME280;9959;49.798;9.928;2023-01-27T02:11:13;100022.41;;;-1.11;86.88
19624;BME280;9959;49.798;9.928;2023-01-27T02:13:43;100021.28;;;-1.09;86.08
19624;BME280;9959;49.798;9.928;2023-01-27T02:16:11;100020.13;;;-1.16;86.70
19624;BME280;9959;49.798;9.928;2023-01-27T02:18:40;100018.97;;;-1.23;86.52
19624;BME280;9959;49.798;9.928;2023-01-27T02:21:07;100022.53;;;-1.13;86.44
19624;BME280;9959;49.798;9.928;2023-01-27T02:28:38;100009.94;;;-0.99;86.17
19624;BME280;9959;49.798;9.928;2023-01-27T02:31:04;100008.50;;;-1.04;86.25
19624;BME280;9959;49.798;9.928;2023-01-27T02:33:31;100007.81;;;-1.06;86.21
19624;BME280;9959;49.798;9.928;2023-01-27T02:36:06;100004.53;;;-1.19;86.69
19624;BME280;9959;49.798;9.928;2023-01-27T02:38:46;100005.16;;;-1.06;86.83
19624;BME280;9959;49.798;9.928;2023-01-27T02:43:55;100008.25;;;-1.00;86.95
19624;BME280;9959;49.798;9.928;2023-01-27T02:46:22;100004.44;;;-1.08;86.78
19624;BME280;9959;49.798;9.928;2023-01-27T02:48:49;100002.72;;;-0.97;86.27
19624;BME280;9959;49.798;9.928;2023-01-27T02:51:16;100001.53;;;-1.05;86.41
19624;BME280;9959;49.798;9.928;2023-01-27T02:53:44;100004.03;;;-1.13;86.85
19624;BME280;9959;49.798;9.928;2023-01-27T02:58:40;100010.19;;;-1.03;86.60
19624;BME280;9959;49.798;9.928;2023-01-27T03:01:08;100010.66;;;-0.97;86.40
19624;BME280;9959;49.798;9.928;2023-01-27T03:03:35;100015.94;;;-0.97;86.60
19624;BME280;9959;49.798;9.928;2023-01-27T03:06:02;100018.00;;;-1.01;86.38
19624;BME280;9959;49.798;9.928;2023-01-27T03:08:29;100017.88;;;-0.99;86.99
19624;BME280;9959;49.798;9.928;2023-01-27T03:10:55;100025.47;;;-1.06;86.16
19624;BME280;9959;49.798;9.928;2023-01-27T03:13:23;100022.44;;;-1.02;86.69
19624;BME280;9959;49.798;9.928;2023-01-27T03:15:50;100029.63;;;-1.13;86.46
19624;BME280;9959;49.798;9.928;2023-01-27T03:18:37;100038.31;;;-1.02;86.70
19624;BME280;9959;49.798;9.928;2023-01-27T03:21:05;100033.84;;;-1.01;86.12
19624;BME280;9959;49.798;9.928;2023-01-27T03:23:32;100031.84;;;-1.09;86.34
19624;BME280;9959;49.798;9.928;2023-01-27T03:26:01;100039.34;;;-1.14;86.71
19624;BME280;9959;49.798;9.928;2023-01-27T03:28:28;100039.66;;;-1.07;86.67
19624;BME280;9959;49.798;9.928;2023-01-27T03:31:00;100036.63;;;-1.03;86.03
19624;BME280;9959;49.798;9.928;2023-01-27T03:33:27;100034.19;;;-0.94;85.41
19624;BME280;9959;49.798;9.928;2023-01-27T03:35:54;100034.66;;;-0.89;85.03
19624;BME280;9959;49.798;9.928;2023-01-27T03:38:39;100044.84;;;-0.85;84.69
19624;BME280;9959;49.798;9.928;2023-01-27T03:41:24;100038.13;;;-0.89;84.22
19624;BME280;9959;49.798;9.928;2023-01-27T03:44:09;100043.53;;;-0.90;84.51
19624;BME280;9959;49.798;9.928;2023-01-27T03:46:36;100042.59;;;-0.89;84.78
19624;BME280;9959;49.798;9.928;2023-01-27T03:49:03;100037.03;;;-0.86;84.34
19624;BME280;9959;49.798;9.928;2023-01-27T03:51:30;100030.44;;;-0.92;85.36
19624;BME280;9959;49.798;9.928;2023-01-27T03:53:56;100029.16;;;-0.97;85.82
19624;BME280;9959;49.798;9.928;2023-01-27T03:56:28;100034.25;;;-1.06;86.54
19624;BME280;9959;49.798;9.928;2023-01-27T03:58:55;100035.50;;;-1.10;86.04
19624;BME280;9959;49.798;9.928;2023-01-27T04:01:23;100041.03;;;-1.13;86.79
19624;BME280;9959;49.798;9.928;2023-01-27T04:03:50;100039.41;;;-1.04;86.38
19624;BME280;9959;49.798;9.928;2023-01-27T04:06:39;100038.81;;;-1.08;86.23
19624;BME280;9959;49.798;9.928;2023-01-27T04:09:33;100037.97;;;-1.08;85.51
19624;BME280;9959;49.798;9.928;2023-01-27T04:12:05;100045.16;;;-0.99;85.43
19624;BME280;9959;49.798;9.928;2023-01-27T04:14:34;100048.28;;;-1.05;86.06
19624;BME280;9959;49.798;9.928;2023-01-27T04:19:39;100043.41;;;-1.10;86.31
19624;BME280;9959;49.798;9.928;2023-01-27T04:22:06;100047.47;;;-1.06;86.09
19624;BME280;9959;49.798;9.928;2023-01-27T04:24:35;100043.00;;;-1.05;86.02
19624;BME280;9959;49.798;9.928;2023-01-27T04:27:07;100046.13;;;-1.00;85.67
19624;BME280;9959;49.798;9.928;2023-01-27T04:29:37;100055.94;;;-1.12;85.50
19624;BME280;9959;49.798;9.928;2023-01-27T04:32:08;100046.38;;;-1.03;85.22
19624;BME280;9959;49.798;9.928;2023-01-27T04:34:36;100045.53;;;-1.04;84.93
19624;BME280;9959;49.798;9.928;2023-01-27T04:37:05;100055.25;;;-1.04;84.56
19624;BME280;9959;49.798;9.928;2023-01-27T04:39:32;100052.03;;;-1.08;84.18
19624;BME280;9959;49.798;9.928;2023-01-27T04:42:00;100057.59;;;-1.11;84.20
19624;BME280;9959;49.798;9.928;2023-01-27T04:44:26;100054.44;;;-1.05;84.21
19624;BME280;9959;49.798;9.928;2023-01-27T04:46:53;100054.75;;;-1.19;84.40
19624;BME280;9959;49.798;9.928;2023-01-27T04:49:20;100056.81;;;-1.02;84.60
19624;BME280;9959;49.798;9.928;2023-01-27T04:51:48;100059.47;;;-1.02;83.61
19624;BME280;9959;49.798;9.928;2023-01-27T04:54:15;100062.72;;;-1.09;83.65
19624;BME280;9959;49.798;9.928;2023-01-27T04:56:58;100062.59;;;-1.08;83.64
19624;BME280;9959;49.798;9.928;2023-01-27T04:59:25;100070.28;;;-1.05;83.68
19624;BME280;9959;49.798;9.928;2023-01-27T05:01:52;100075.00;;;-1.08;83.94
19624;BME280;9959;49.798;9.928;2023-01-27T05:04:19;100085.00;;;-1.12;83.61
19624;BME280;9959;49.798;9.928;2023-01-27T05:06:46;100078.94;;;-1.03;83.46
19624;BME280;9959;49.798;9.928;2023-01-27T05:09:13;100077.19;;;-1.13;84.28
19624;BME280;9959;49.798;9.928;2023-01-27T05:11:40;100074.75;;;-1.05;83.78
19624;BME280;9959;49.798;9.928;2023-01-27T05:14:10;100079.44;;;-1.09;83.60
19624;BME280;9959;49.798;9.928;2023-01-27T05:16:37;100070.03;;;-1.02;83.36
19624;BME280;9959;49.798;9.928;2023-01-27T05:19:05;100073.16;;;-0.96;82.74
19624;BME280;9959;49.798;9.928;2023-01-27T05:21:32;100071.41;;;-0.86;82.79
19624;BME280;9959;49.798;9.928;2023-01-27T05:24:00;100058.56;;;-0.91;82.13
19624;BME280;9959;49.798;9.928;2023-01-27T05:26:27;100060.56;;;-1.04;82.19
19624;BME280;9959;49.798;9.928;2023-01-27T05:28:56;100065.66;;;-0.91;82.05
19624;BME280;9959;49.798;9.928;2023-01-27T05:31:29;100063.06;;;-1.03;81.91
19624;BME280;9959;49.798;9.928;2023-01-27T05:33:59;100060.56;;;-1.04;82.73
19624;BME280;9959;49.798;9.928;2023-01-27T05:36:27;100066.13;;;-0.86;81.58
19624;BME280;9959;49.798;9.928;2023-01-27T05:38:56;100067.91;;;-1.08;82.45
19624;BME280;9959;49.798;9.928;2023-01-27T05:41:24;100072.69;;;-1.02;82.33
19624;BME280;9959;49.798;9.928;2023-01-27T05:43:53;100071.47;;;-0.97;81.85
19624;BME280;9959;49.798;9.928;2023-01-27T05:46:24;100076.09;;;-1.11;82.42
19624;BME280;9959;49.798;9.928;2023-01-27T05:48:54;100077.97;;;-1.02;81.92
19624;BME280;9959;49.798;9.928;2023-01-27T05:51:22;100085.16;;;-0.92;81.84
19624;BME280;9959;49.798;9.928;2023-01-27T05:53:50;100078.19;;;-0.93;81.53
19624;BME280;9959;49.798;9.928;2023-01-27T05:56:19;100086.75;;;-1.01;81.87
19624;BME280;9959;49.798;9.928;2023-01-27T05:58:50;100091.16;;;-0.90;81.55
19624;BME280;9959;49.798;9.928;2023-01-27T06:01:24;100089.84;;;-0.96;81.43
19624;BME280;9959;49.798;9.928;2023-01-27T06:03:51;100085.41;;;-0.95;81.54
19624;BME280;9959;49.798;9.928;2023-01-27T06:06:20;100089.25;;;-0.99;81.62
19624;BME280;9959;49.798;9.928;2023-01-27T06:08:48;100091.28;;;-0.92;81.75
19624;BME280;9959;49.798;9.928;2023-01-27T06:11:17;100094.28;;;-0.96;81.99
19624;BME280;9959;49.798;9.928;2023-01-27T06:13:46;100089.75;;;-1.06;82.29
19624;BME280;9959;49.798;9.928;2023-01-27T06:16:15;100091.97;;;-1.11;82.42
19624;BME280;9959;49.798;9.928;2023-01-27T06:18:46;100091.19;;;-1.02;82.83
19624;BME280;9959;49.798;9.928;2023-01-27T06:21:15;100091.13;;;-1.11;83.16
19624;BME280;9959;49.798;9.928;2023-01-27T06:23:42;100092.53;;;-1.07;83.79
19624;BME280;9959;49.798;9.928;2023-01-27T06:26:15;100092.13;;;-0.91;83.00
19624;BME280;9959;49.798;9.928;2023-01-27T06:28:42;100088.41;;;-1.00;83.56
19624;BME280;9959;49.798;9.928;2023-01-27T06:33:39;100085.25;;;-1.15;84.50
19624;BME280;9959;49.798;9.928;2023-01-27T06:36:11;100093.06;;;-1.13;84.59
19624;BME280;9959;49.798;9.928;2023-01-27T06:38:39;100094.16;;;-1.16;84.94
19624;BME280;9959;49.798;9.928;2023-01-27T06:41:06;100088.28;;;-1.19;85.19
19624;BME280;9959;49.798;9.928;2023-01-27T06:43:39;100090.28;;;-1.12;85.11
19624;BME280;9959;49.798;9.928;2023-01-27T06:46:09;100096.97;;;-1.08;85.54
19624;BME280;9959;49.798;9.928;2023-01-27T06:48:36;100107.84;;;-1.11;85.36
19624;BME280;9959;49.798;9.928;2023-01-27T06:51:03;100104.97;;;-1.19;85.89
19624;BME280;9959;49.798;9.928;2023-01-27T06:53:30;100109.50;;;-1.10;86.17
19624;BME280;9959;49.798;9.928;2023-01-27T06:55:59;100116.03;;;-1.25;86.40
19624;BME280;9959;49.798;9.928;2023-01-27T06:58:27;100109.28;;;-1.18;86.56
19624;BME280;9959;49.798;9.928;2023-01-27T07:00:54;100112.84;;;-1.08;86.04
19624;BME280;9959;49.798;9.928;2023-01-27T07:03:21;100117.56;;;-1.11;86.04
19624;BME280;9959;49.798;9.928;2023-01-27T07:05:48;100119.56;;;-1.04;85.90
19624;BME280;9959;49.798;9.928;2023-01-27T07:08:15;100124.84;;;-1.04;85.62
19624;BME280;9959;49.798;9.928;2023-01-27T07:10:42;100140.13;;;-1.07;86.12
19624;BME280;9959;49.798;9.928;2023-01-27T07:13:11;100139.28;;;-1.08;85.92
19624;BME280;9959;49.798;9.928;2023-01-27T07:15:39;100141.78;;;-0.95;86.12
19624;BME280;9959;49.798;9.928;2023-01-27T07:18:06;100152.47;;;-0.96;85.94
19624;BME280;9959;49.798;9.928;2023-01-27T07:20:33;100155.09;;;-0.85;86.14
19624;BME280;9959;49.798;9.928;2023-01-27T07:23:03;100149.00;;;-0.76;85.50
19624;BME280;9959;49.798;9.928;2023-01-27T07:25:32;100155.50;;;-1.01;86.68
19624;BME280;9959;49.798;9.928;2023-01-27T07:28:00;100161.03;;;-1.04;86.62
19624;BME280;9959;49.798;9.928;2023-01-27T07:30:28;100157.50;;;-0.93;86.36
19624;BME280;9959;49.798;9.928;2023-01-27T07:32:54;100159.41;;;-0.84;86.33
19624;BME280;9959;49.798;9.928;2023-01-27T07:35:22;100159.13;;;-0.81;85.69
19624;BME280;9959;49.798;9.928;2023-01-27T07:37:48;100160.38;;;-0.85;86.08
19624;BME280;9959;49.798;9.928;2023-01-27T07:40:15;100160.38;;;-0.85;85.95
19624;BME280;9959;49.798;9.928;2023-01-27T07:42:43;100159.59;;;-0.76;85.44
19624;BME280;9959;49.798;9.928;2023-01-27T07:45:10;100162.38;;;-0.78;85.79
19624;BME280;9959;49.798;9.928;2023-01-27T07:47:36;100164.81;;;-0.86;85.70
19624;BME280;9959;49.798;9.928;2023-01-27T07:50:04;100179.72;;;-0.85;86.03
19624;BME280;9959;49.798;9.928;2023-01-27T07:52:31;100177.16;;;-0.75;85.89
19624;BME280;9959;49.798;9.928;2023-01-27T07:54:57;100177.16;;;-0.75;86.26
19624;BME280;9959;49.798;9.928;2023-01-27T07:57:24;100187.97;;;-0.78;85.71
19624;BME280;9959;49.798;9.928;2023-01-27T07:59:51;100179.53;;;-0.72;85.76
19624;BME280;9959;49.798;9.928;2023-01-27T08:02:22;100182.91;;;-0.70;85.47
19624;BME280;9959;49.798;9.928;2023-01-27T08:04:50;100180.75;;;-0.76;85.71
19624;BME280;9959;49.798;9.928;2023-01-27T08:07:19;100187.09;;;-0.68;85.52
19624;BME280;9959;49.798;9.928;2023-01-27T08:09:47;100191.09;;;-0.73;85.99
19624;BME280;9959;49.798;9.928;2023-01-27T08:12:13;100188.38;;;-0.83;85.75
19624;BME280;9959;49.798;9.928;2023-01-27T08:14:40;100183.38;;;-0.65;85.27
19624;BME280;9959;49.798;9.928;2023-01-27T08:17:07;100183.38;;;-0.65;84.78
19624;BME280;9959;49.798;9.928;2023-01-27T08:19:34;100188.91;;;-0.68;85.44
19624;BME280;9959;49.798;9.928;2023-01-27T08:22:01;100186.66;;;-0.52;84.32
19624;BME280;9959;49.798;9.928;2023-01-27T08:24:27;100194.09;;;-0.46;84.77
19624;BME280;9959;49.798;9.928;2023-01-27T08:26:55;100185.72;;;-0.30;83.45
19624;BME280;9959;49.798;9.928;2023-01-27T08:29:21;100195.28;;;-0.39;82.96
19624;BME280;9959;49.798;9.928;2023-01-27T08:31:48;100192.16;;;-0.44;82.26
19624;BME280;9959;49.798;9.928;2023-01-27T08:34:15;100186.69;;;-0.31;82.61
19624;BME280;9959;49.798;9.928;2023-01-27T08:36:42;100190.56;;;-0.35;82.26
19624;BME280;9959;49.798;9.928;2023-01-27T08:39:09;100189.97;;;-0.39;81.59
19624;BME280;9959;49.798;9.928;2023-01-27T08:41:36;100192.81;;;-0.30;82.05
19624;BME280;9959;49.798;9.928;2023-01-27T08:44:03;100194.81;;;-0.44;82.98
19624;BME280;9959;49.798;9.928;2023-01-27T08:46:30;100191.06;;;-0.20;82.38
19624;BME280;9959;49.798;9.928;2023-01-27T08:48:56;100205.34;;;-0.32;82.80
19624;BME280;9959;49.798;9.928;2023-01-27T08:51:23;100200.94;;;-0.22;82.25
19624;BME280;9959;49.798;9.928;2023-01-27T08:53:50;100210.00;;;-0.04;82.20
19624;BME280;9959;49.798;9.928;2023-01-27T08:56:17;100215.28;;;-0.04;81.90
19624;BME280;9959;49.798;9.928;2023-01-27T08:58:43;100214.38;;;-0.14;82.37
19624;BME280;9959;49.798;9.928;2023-01-27T09:01:13;100215.47;;;-0.17;82.12
19624;BME280;9959;49.798;9.928;2023-01-27T09:03:41;100217.88;;;-0.14;82.53
19624;BME280;9959;49.798;9.928;2023-01-27T09:06:10;100216.72;;;0.00;81.82
19624;BME280;9959;49.798;9.928;2023-01-27T09:08:38;100211.41;;;0.00;81.34
19624;BME280;9959;49.798;9.928;2023-01-27T09:13:39;100214.75;;;0.02;81.08
19624;BME280;9959;49.798;9.928;2023-01-27T09:16:06;100219.09;;;-0.18;81.70
19624;BME280;9959;49.798;9.928;2023-01-27T09:18:34;100222.78;;;-0.09;81.91
19624;BME280;9959;49.798;9.928;2023-01-27T09:21:04;100223.22;;;0.17;80.91
19624;BME280;9959;49.798;9.928;2023-01-27T09:23:34;100217.78;;;0.18;80.79
19624;BME280;9959;49.798;9.928;2023-01-27T09:26:01;100220.19;;;0.31;79.69
19624;BME280;9959;49.798;9.928;2023-01-27T09:28:27;100221.59;;;0.05;80.75
19624;BME280;9959;49.798;9.928;2023-01-27T09:30:58;100232.78;;;0.39;79.17
19624;BME280;9959;49.798;9.928;2023-01-27T09:33:26;100235.94;;;0.53;78.69
19624;BME280;9959;49.798;9.928;2023-01-27T09:36:02;100234.41;;;0.51;78.47
19624;BME280;9959;49.798;9.928;2023-01-27T09:38:34;100227.88;;;0.34;79.36
19624;BME280;9959;49.798;9.928;2023-01-27T09:49:15;100232.94;;;0.37;79.18
19624;BME280;9959;49.798;9.928;2023-01-27T09:51:47;100239.16;;;0.57;78.54
19624;BME280;9959;49.798;9.928;2023-01-27T09:59:42;100236.31;;;0.79;76.84
19624;BME280;9959;49.798;9.928;2023-01-27T10:10:37;100228.38;;;0.79;76.14
19624;BME280;9959;49.798;9.928;2023-01-27T10:16:09;100227.38;;;0.80;76.23
19624;BME280;9959;49.798;9.928;2023-01-27T10:35:37;100222.56;;;1.14;74.71
19624;BME280;9959;49.798;9.928;2023-01-27T10:40:48;100210.56;;;1.29;74.60
19624;BME280;9959;49.798;9.928;2023-01-27T10:49:06;100203.31;;;1.60;72.38
19624;BME280;9959;49.798;9.928;2023-01-27T10:51:38;100217.16;;;1.35;73.82
19624;BME280;9959;49.798;9.928;2023-01-27T10:56:47;100206.81;;;1.51;74.06
19624;BME280;9959;49.798;9.928;2023-01-27T10:59:28;100212.94;;;1.81;73.23
19624;BME280;9959;49.798;9.928;2023-01-27T11:04:41;100204.84;;;1.44;74.11
19624;BME280;9959;49.798;9.928;2023-01-27T11:09:46;100208.47;;;1.23;74.18
19624;BME280;9959;49.798;9.928;2023-01-27T11:12:14;100203.47;;;1.30;74.67
19624;BME280;9959;49.798;9.928;2023-01-27T11:14:49;100205.97;;;1.31;74.14
19624;BME280;9959;49.798;9.928;2023-01-27T11:17:56;100216.31;;;1.34;75.14
19624;BME280;9959;49.798;9.928;2023-01-27T11:20:32;100207.34;;;1.26;74.83
19624;BME280;9959;49.798;9.928;2023-01-27T11:23:06;100204.00;;;1.43;74.92
19624;BME280;9959;49.798;9.928;2023-01-27T11:31:08;100205.84;;;1.33;74.41
19624;BME280;9959;49.798;9.928;2023-01-27T11:33:53;100189.63;;;1.36;74.64
19624;BME280;9959;49.798;9.928;2023-01-27T11:36:24;100201.06;;;1.56;73.58
19624;BME280;9959;49.798;9.928;2023-01-27T11:38:55;100195.47;;;1.78;73.75
19624;BME280;9959;49.798;9.928;2023-01-27T11:41:27;100200.91;;;1.67;72.89
19624;BME280;9959;49.798;9.928;2023-01-27T11:43:53;100203.88;;;1.64;73.16
19624;BME280;9959;49.798;9.928;2023-01-27T11:46:22;100193.09;;;1.65;72.91
19624;BME280;9959;49.798;9.928;2023-01-27T11:48:55;100200.06;;;1.66;73.57
19624;BME280;9959;49.798;9.928;2023-01-27T11:51:25;100196.44;;;1.77;73.02
19624;BME280;9959;49.798;9.928;2023-01-27T11:56:40;100205.09;;;1.89;73.45
19624;BME280;9959;49.798;9.928;2023-01-27T12:01:47;100193.44;;;2.09;72.47
19624;BME280;9959;49.798;9.928;2023-01-27T12:07:11;100190.06;;;2.17;71.75
19624;BME280;9959;49.798;9.928;2023-01-27T12:09:40;100190.53;;;2.40;70.93
19624;BME280;9959;49.798;9.928;2023-01-27T12:17:40;100182.56;;;2.40;71.12
19624;BME280;9959;49.798;9.928;2023-01-27T12:22:39;100177.31;;;2.20;71.43
19624;BME280;9959;49.798;9.928;2023-01-27T12:27:45;100176.19;;;2.78;68.73
19624;BME280;9959;49.798;9.928;2023-01-27T12:30:39;100166.63;;;3.73;65.24
19624;BME280;9959;49.798;9.928;2023-01-27T12:33:11;100161.66;;;5.63;59.97
19624;BME280;9959;49.798;9.928;2023-01-27T12:35:39;100158.25;;;7.04;53.66
19624;BME280;9959;49.798;9.928;2023-01-27T12:38:12;100153.78;;;6.10;56.09
19624;BME280;9959;49.798;9.928;2023-01-27T12:40:41;100149.88;;;7.07;53.05
19624;BME280;9959;49.798;9.928;2023-01-27T12:45:40;100146.47;;;5.64;57.26
19624;BME280;9959;49.798;9.928;2023-01-27T12:50:44;100142.94;;;4.22;61.74
19624;BME280;9959;49.798;9.928;2023-01-27T12:53:25;100131.06;;;3.83;64.20
19624;BME280;9959;49.798;9.928;2023-01-27T12:58:45;100140.66;;;3.50;66.48
19624;BME280;9959;49.798;9.928;2023-01-27T13:01:32;100138.53;;;3.35;65.38
19624;BME280;9959;49.798;9.928;2023-01-27T13:04:04;100133.44;;;3.06;67.77
19624;BME280;9959;49.798;9.928;2023-01-27T13:11:39;100132.06;;;3.02;67.95
19624;BME280;9959;49.798;9.928;2023-01-27T13:14:07;100138.09;;;3.22;67.53
19624;BME280;9959;49.798;9.928;2023-01-27T13:16:39;100141.75;;;2.76;68.99
19624;BME280;9959;49.798;9.928;2023-01-27T13:21:38;100140.28;;;2.91;69.56
19624;BME280;9959;49.798;9.928;2023-01-27T13:26:39;100142.16;;;2.26;71.13
19624;BME280;9959;49.798;9.928;2023-01-27T13:31:53;100137.09;;;2.60;69.98
19624;BME280;9959;49.798;9.928;2023-01-27T13:34:29;100140.28;;;2.91;68.86
19624;BME280;9959;49.798;9.928;2023-01-27T13:47:26;100145.88;;;2.43;71.33
19624;BME280;9959;49.798;9.928;2023-01-27T13:49:57;100145.81;;;2.53;71.78
19624;BME280;9959;49.798;9.928;2023-01-27T13:52:27;100160.34;;;2.31;71.85
19624;BME280;9959;49.798;9.928;2023-01-27T13:54:54;100156.75;;;2.50;71.93
19624;BME280;9959;49.798;9.928;2023-01-27T14:00:10;100162.16;;;2.30;72.42
19624;BME280;9959;49.798;9.928;2023-01-27T14:18:42;100165.13;;;2.27;73.59
19624;BME280;9959;49.798;9.928;2023-01-27T14:24:01;100158.25;;;2.25;73.37
19624;BME280;9959;49.798;9.928;2023-01-27T14:29:49;100171.09;;;2.39;73.52
19624;BME280;9959;49.798;9.928;2023-01-27T14:32:38;100169.16;;;2.31;73.69
19624;BME280;9959;49.798;9.928;2023-01-27T14:43:50;100185.41;;;2.28;73.83
19624;BME280;9959;49.798;9.928;2023-01-27T14:51:49;100190.22;;;2.15;74.90
19624;BME280;9959;49.798;9.928;2023-01-27T14:57:12;100182.19;;;2.25;74.59
19624;BME280;9959;49.798;9.928;2023-01-27T15:02:46;100192.19;;;2.13;75.58
19624;BME280;9959;49.798;9.928;2023-01-27T15:05:19;100185.59;;;2.17;75.02
19624;BME280;9959;49.798;9.928;2023-01-27T15:11:09;100192.72;;;2.17;75.47
19624;BME280;9959;49.798;9.928;2023-01-27T15:22:27;100200.72;;;1.97;77.09
19624;BME280;9959;49.798;9.928;2023-01-27T15:25:15;100207.31;;;1.93;77.11
19624;BME280;9959;49.798;9.928;2023-01-27T15:27:45;100205.91;;;1.99;77.33
19624;BME280;9959;49.798;9.928;2023-01-27T15:31:03;100203.16;;;1.91;77.21
19624;BME280;9959;49.798;9.928;2023-01-27T15:36:32;100206.47;;;1.93;77.83
19624;BME280;9959;49.798;9.928;2023-01-27T15:44:33;100215.28;;;2.03;77.63
19624;BME280;9959;49.798;9.928;2023-01-27T15:47:08;100213.03;;;1.98;77.85
19624;BME280;9959;49.798;9.928;2023-01-27T15:49:41;100221.44;;;1.94;78.26
19624;BME280;9959;49.798;9.928;2023-01-27T15:54:40;100218.75;;;2.03;78.03
19624;BME280;9959;49.798;9.928;2023-01-27T15:59:46;100223.81;;;1.97;79.09
19624;BME280;9959;49.798;9.928;2023-01-27T16:02:27;100226.03;;;2.01;77.95
19624;BME280;9959;49.798;9.928;2023-01-27T16:05:13;100231.06;;;2.04;77.90
19624;BME280;9959;49.798;9.928;2023-01-27T16:07:40;100223.25;;;1.93;78.33
19624;BME280;9959;49.798;9.928;2023-01-27T16:12:42;100232.22;;;1.83;79.34
19624;BME280;9959;49.798;9.928;2023-01-27T16:15:21;100232.22;;;1.83;78.91
19624;BME280;9959;49.798;9.928;2023-01-27T16:25:43;100228.16;;;1.79;79.75
19624;BME280;9959;49.798;9.928;2023-01-27T16:33:45;100240.06;;;1.75;80.32
19624;BME280;9959;49.798;9.928;2023-01-27T16:38:46;100247.59;;;1.79;80.90
19624;BME280;9959;49.798;9.928;2023-01-27T16:41:19;100246.75;;;1.79;80.29
19624;BME280;9959;49.798;9.928;2023-01-27T16:46:40;100256.69;;;1.77;80.12
19624;BME280;9959;49.798;9.928;2023-01-27T16:51:40;100267.59;;;1.74;80.16
19624;BME280;9959;49.798;9.928;2023-01-27T16:56:47;100266.34;;;1.78;80.54
19624;BME280;9959;49.798;9.928;2023-01-27T16:59:26;100272.06;;;1.73;80.63
19624;BME280;9959;49.798;9.928;2023-01-27T17:02:01;100275.84;;;1.70;81.08
19624;BME280;9959;49.798;9.928;2023-01-27T17:04:30;100274.72;;;1.73;81.32
19624;BME280;9959;49.798;9.928;2023-01-27T17:07:10;100267.72;;;1.72;80.88
19624;BME280;9959;49.798;9.928;2023-01-27T17:09:48;100277.25;;;1.75;80.94
19624;BME280;9959;49.798;9.928;2023-01-27T17:14:52;100269.97;;;1.67;81.12
19624;BME280;9959;49.798;9.928;2023-01-27T17:17:21;100275.00;;;1.60;81.27